Time;durP1;ratioP1;P1;durP2;ratioP2;P2;SDS_P1;SDS_P2;PMS_P1;PMS_P2;Temp;Humidity;BMP_temperature;BMP_pressure;BME280_temperature;BME280_humidity;BME280_pressure;Samples;Min_cycle;Max_cycle;Signal;HPM_P1;HPM_P2
2022/01/06 00:01:11;;;;;;;8.88;2.33;;;3.20;99.90;;;;;;5047021;28;20017;-42
2022/01/06 00:03:36;;;;;;;15.70;2.85;;;3.20;99.90;;;;;;5047493;28;20033;-43
2022/01/06 00:06:06;;;;;;;10.80;2.60;;;3.20;99.90;;;;;;5046324;28;20484;-44
2022/01/06 00:08:34;;;;;;;9.00;2.65;;;3.20;99.90;;;;;;5047906;28;20029;-44
2022/01/06 00:11:00;;;;;;;16.23;2.47;;;3.20;99.90;;;;;;5047016;28;20096;-42
2022/01/06 00:13:44;;;;;;;9.32;2.20;;;3.10;99.90;;;;;;5047143;28;20872;-43
2022/01/06 00:16:17;;;;;;;12.40;3.15;;;3.20;99.90;;;;;;5047129;28;20032;-43
2022/01/06 00:23:52;;;;;;;15.48;3.28;;;3.20;99.90;;;;;;5047240;28;20044;-42
2022/01/06 00:26:17;;;;;;;15.20;3.33;;;3.20;99.90;;;;;;5046357;28;20029;-42
2022/01/06 00:28:43;;;;;;;16.90;2.67;;;3.20;99.90;;;;;;5047572;28;20021;-44
2022/01/06 00:31:08;;;;;;;12.15;2.63;;;3.20;99.90;;;;;;5043352;28;20029;-42
2022/01/06 00:33:34;;;;;;;15.73;2.65;;;3.20;99.90;;;;;;5046201;28;20017;-42
2022/01/06 00:36:01;;;;;;;9.82;1.88;;;3.20;99.90;;;;;;5047152;28;20494;-44
2022/01/06 00:38:26;;;;;;;8.10;2.30;;;3.10;99.90;;;;;;5046972;28;20021;-43
2022/01/06 00:40:53;;;;;;;14.48;3.20;;;3.10;99.90;;;;;;5046569;28;20028;-42
2022/01/06 00:43:19;;;;;;;14.05;2.70;;;3.10;99.90;;;;;;5047065;28;20056;-43
2022/01/06 00:45:45;;;;;;;11.90;2.47;;;3.10;99.90;;;;;;5046505;28;20048;-44
2022/01/06 00:48:10;;;;;;;13.75;2.72;;;3.10;99.90;;;;;;5046645;28;20456;-43
2022/01/06 00:50:41;;;;;;;13.25;2.70;;;3.10;99.90;;;;;;5047159;28;20039;-43
2022/01/06 00:53:08;;;;;;;7.43;2.10;;;3.10;99.90;;;;;;5046739;28;20029;-42
2022/01/06 00:55:35;;;;;;;12.43;2.17;;;3.10;99.90;;;;;;5046240;28;20025;-42
2022/01/06 00:58:01;;;;;;;12.27;2.67;;;3.10;99.90;;;;;;5046883;28;20083;-42
2022/01/06 01:00:31;;;;;;;11.98;2.40;;;3.10;99.90;;;;;;5046725;28;20036;-42
2022/01/06 01:02:57;;;;;;;6.53;2.15;;;3.00;99.90;;;;;;5045860;28;20400;-42
2022/01/06 01:05:23;;;;;;;12.15;2.67;;;3.00;99.90;;;;;;5046839;28;20024;-43
2022/01/06 01:07:48;;;;;;;13.98;2.50;;;3.00;99.90;;;;;;5045760;28;20131;-43
2022/01/06 01:10:14;;;;;;;11.13;2.03;;;3.00;99.90;;;;;;5046945;28;20040;-43
2022/01/06 01:12:46;;;;;;;10.70;1.90;;;3.00;99.90;;;;;;5046647;28;20025;-43
2022/01/06 01:15:18;;;;;;;15.57;3.17;;;3.00;99.90;;;;;;5050400;28;20025;-43
2022/01/06 01:17:45;;;;;;;11.10;2.47;;;3.00;99.90;;;;;;5051219;28;20076;-43
2022/01/06 01:20:11;;;;;;;6.50;2.30;;;3.00;99.90;;;;;;5050371;28;20112;-42
2022/01/06 01:22:36;;;;;;;3.75;1.63;;;3.00;99.90;;;;;;5049670;28;20048;-42
2022/01/06 01:25:02;;;;;;;8.80;1.58;;;2.90;99.90;;;;;;5050886;28;20075;-42
2022/01/06 01:27:34;;;;;;;8.82;2.10;;;2.90;99.90;;;;;;5050271;28;20032;-42
2022/01/06 01:30:08;;;;;;;10.40;1.92;;;2.90;99.90;;;;;;5050287;28;20037;-43
2022/01/06 01:32:36;;;;;;;8.13;1.60;;;2.90;99.90;;;;;;5050276;28;20017;-43
2022/01/06 01:35:07;;;;;;;8.35;1.80;;;2.90;99.90;;;;;;5050159;28;20540;-43
2022/01/06 01:37:32;;;;;;;10.20;1.67;;;2.90;99.90;;;;;;5050010;28;20044;-48
2022/01/06 01:39:59;;;;;;;13.13;2.10;;;2.90;99.90;;;;;;5050296;28;20457;-43
2022/01/06 01:42:26;;;;;;;12.98;1.95;;;2.90;99.90;;;;;;5049543;28;20021;-44
2022/01/06 01:44:52;;;;;;;10.82;2.40;;;2.90;99.90;;;;;;5046172;28;20112;-43
2022/01/06 01:47:32;;;;;;;10.20;2.95;;;2.80;99.90;;;;;;5050617;28;20112;-43
2022/01/06 01:50:21;;;;;;;7.28;1.95;;;2.80;99.90;;;;;;5048728;28;20037;-44
2022/01/06 01:52:47;;;;;;;9.40;2.03;;;2.80;99.90;;;;;;5049531;28;20048;-44
2022/01/06 01:55:16;;;;;;;9.45;2.03;;;2.90;99.90;;;;;;5046781;28;20033;-43
2022/01/06 01:57:42;;;;;;;10.40;2.30;;;2.90;99.90;;;;;;5049414;28;20111;-42
2022/01/06 02:00:10;;;;;;;9.20;1.98;;;2.90;99.90;;;;;;5049820;28;20539;-43
2022/01/06 02:02:36;;;;;;;7.63;1.70;;;2.90;99.90;;;;;;5049277;28;20033;-44
2022/01/06 02:05:02;;;;;;;7.50;1.73;;;2.80;99.90;;;;;;5049203;28;20029;-44
2022/01/06 02:07:27;;;;;;;7.15;1.63;;;2.90;99.90;;;;;;5049744;28;20036;-41
2022/01/06 02:09:53;;;;;;;6.95;1.70;;;2.80;99.90;;;;;;5049311;28;20045;-41
2022/01/06 02:12:28;;;;;;;8.63;1.73;;;2.90;99.90;;;;;;5049907;28;20374;-42
2022/01/06 02:14:53;;;;;;;7.03;1.65;;;2.80;99.90;;;;;;5049193;28;20396;-43
2022/01/06 02:17:25;;;;;;;7.72;2.05;;;2.80;99.90;;;;;;5049971;28;20028;-42
2022/01/06 02:19:55;;;;;;;8.07;1.60;;;2.80;99.90;;;;;;5048624;28;20448;-43
2022/01/06 02:22:21;;;;;;;6.50;1.48;;;2.80;99.90;;;;;;5050016;28;20409;-43
2022/01/06 02:24:47;;;;;;;8.38;2.22;;;2.80;99.90;;;;;;5048174;28;20107;-44
2022/01/06 02:27:12;;;;;;;7.85;1.85;;;2.80;99.90;;;;;;5049313;28;20117;-43
2022/01/06 02:29:38;;;;;;;8.32;1.92;;;2.80;99.90;;;;;;5049096;28;20036;-42
2022/01/06 02:32:09;;;;;;;9.20;1.73;;;2.80;99.90;;;;;;5049269;28;20025;-43
2022/01/06 02:34:34;;;;;;;10.13;2.10;;;2.80;99.90;;;;;;5049280;28;20078;-43
2022/01/06 02:37:01;;;;;;;9.93;1.67;;;2.80;99.90;;;;;;5049069;28;20025;-43
2022/01/06 02:39:27;;;;;;;7.70;1.58;;;2.80;99.90;;;;;;5048827;28;20031;-43
2022/01/06 02:41:53;;;;;;;8.30;1.88;;;2.80;99.90;;;;;;5049240;28;20051;-42
2022/01/06 02:44:23;;;;;;;11.90;2.25;;;2.80;99.90;;;;;;5049184;28;20025;-42
2022/01/06 02:46:49;;;;;;;8.52;1.70;;;2.80;99.90;;;;;;5047719;28;20017;-43
2022/01/06 02:49:14;;;;;;;10.23;1.88;;;2.70;99.90;;;;;;5049280;28;20033;-43
2022/01/06 02:51:42;;;;;;;6.90;1.52;;;2.70;99.90;;;;;;5048382;28;20148;-42
2022/01/06 02:54:08;;;;;;;8.07;1.50;;;2.70;99.90;;;;;;5048592;28;20033;-43
2022/01/06 02:56:33;;;;;;;7.40;1.63;;;2.70;99.90;;;;;;5048400;28;20025;-43
2022/01/06 02:58:59;;;;;;;6.05;1.40;;;2.70;99.90;;;;;;5048482;28;20476;-43
2022/01/06 03:01:25;;;;;;;5.53;1.40;;;2.80;99.90;;;;;;5048013;28;20120;-43
2022/01/06 03:03:50;;;;;;;8.60;1.50;;;2.80;99.90;;;;;;5048419;28;20025;-43
2022/01/06 03:06:16;;;;;;;5.93;1.27;;;2.70;99.90;;;;;;5048247;28;20025;-46
2022/01/06 03:08:42;;;;;;;8.20;1.60;;;2.70;99.90;;;;;;5047956;28;20044;-43
2022/01/06 03:11:07;;;;;;;9.35;1.40;;;2.70;99.90;;;;;;5048014;28;20052;-43
2022/01/06 03:13:33;;;;;;;6.63;1.45;;;2.70;99.90;;;;;;5048471;28;20033;-43
2022/01/06 03:16:01;;;;;;;8.75;1.50;;;2.70;99.90;;;;;;5047980;28;20055;-42
2022/01/06 03:18:27;;;;;;;7.25;1.70;;;2.70;99.90;;;;;;5037651;28;20111;-42
2022/01/06 03:20:52;;;;;;;6.57;1.50;;;2.70;99.90;;;;;;5048109;28;20113;-44
2022/01/06 03:23:20;;;;;;;9.32;2.20;;;2.70;99.90;;;;;;5047962;28;20694;-43
2022/01/06 03:25:46;;;;;;;11.20;1.95;;;2.70;99.90;;;;;;5048338;28;20021;-42
2022/01/06 03:28:12;;;;;;;8.25;1.67;;;2.70;99.90;;;;;;5048376;28;20021;-42
2022/01/06 03:30:38;;;;;;;8.68;1.95;;;2.70;99.90;;;;;;5047464;28;20048;-43
2022/01/06 03:33:03;;;;;;;4.72;1.58;;;2.70;99.90;;;;;;5047396;28;20532;-42
2022/01/06 03:35:29;;;;;;;9.57;1.67;;;2.70;99.90;;;;;;5046795;28;20112;-42
2022/01/06 03:37:55;;;;;;;10.52;2.17;;;2.70;99.90;;;;;;5047881;28;20029;-44
2022/01/06 03:40:21;;;;;;;10.27;2.22;;;2.70;99.90;;;;;;5048302;28;20140;-43
2022/01/06 03:42:47;;;;;;;7.00;1.40;;;2.70;99.90;;;;;;5047105;28;20598;-43
2022/01/06 03:45:15;;;;;;;8.15;2.08;;;2.60;99.90;;;;;;5048108;28;20449;-44
2022/01/06 03:47:41;;;;;;;12.55;2.08;;;2.70;99.90;;;;;;5047555;28;20135;-43
2022/01/06 03:50:08;;;;;;;9.45;1.90;;;2.70;99.90;;;;;;5047261;28;20531;-42
2022/01/06 03:52:34;;;;;;;8.13;1.55;;;2.70;99.90;;;;;;5047512;28;20044;-44
2022/01/06 03:55:00;;;;;;;6.88;1.70;;;2.60;99.90;;;;;;5047503;28;20473;-42
2022/01/06 03:57:26;;;;;;;6.30;1.50;;;2.60;99.90;;;;;;5046720;28;20124;-43
2022/01/06 03:59:51;;;;;;;12.38;2.95;;;2.60;99.90;;;;;;5047329;28;20116;-42
2022/01/06 04:02:17;;;;;;;8.65;1.45;;;2.60;99.90;;;;;;5047654;28;20025;-43
2022/01/06 04:04:42;;;;;;;8.13;2.35;;;2.60;99.90;;;;;;5047164;28;20025;-41
2022/01/06 04:07:08;;;;;;;10.20;1.58;;;2.60;99.90;;;;;;5047411;28;20029;-43
2022/01/06 04:09:33;;;;;;;6.15;1.70;;;2.60;99.90;;;;;;5046690;28;20415;-43
2022/01/06 04:11:59;;;;;;;6.90;2.08;;;2.60;99.90;;;;;;5047327;28;20056;-43
2022/01/06 04:14:24;;;;;;;7.93;1.77;;;2.60;99.90;;;;;;5047280;28;20048;-42
2022/01/06 04:16:57;;;;;;;7.88;1.80;;;2.60;99.90;;;;;;5047428;28;20017;-42
2022/01/06 04:19:23;;;;;;;8.85;1.70;;;2.60;99.90;;;;;;5046752;28;20032;-42
2022/01/06 04:21:48;;;;;;;5.30;1.00;;;2.60;99.90;;;;;;5047123;28;20389;-42
2022/01/06 04:24:14;;;;;;;11.32;1.58;;;2.50;99.90;;;;;;5047119;28;20416;-43
2022/01/06 04:26:39;;;;;;;7.70;1.50;;;2.50;99.90;;;;;;5046708;28;20123;-42
2022/01/06 04:29:05;;;;;;;7.07;1.95;;;2.50;99.90;;;;;;5047303;28;20053;-43
2022/01/06 04:31:30;;;;;;;10.05;2.08;;;2.50;99.90;;;;;;5046899;28;20467;-43
2022/01/06 04:33:55;;;;;;;14.10;2.60;;;2.50;99.90;;;;;;5046146;28;20021;-42
2022/01/06 04:36:21;;;;;;;14.15;2.85;;;2.60;99.90;;;;;;5047575;28;20029;-44
2022/01/06 04:38:47;;;;;;;9.25;2.00;;;2.60;99.90;;;;;;5045720;28;20507;-43
2022/01/06 04:41:12;;;;;;;8.20;1.88;;;2.60;99.90;;;;;;5047426;28;20021;-42
2022/01/06 04:43:38;;;;;;;12.07;1.80;;;2.70;99.90;;;;;;5047196;28;20126;-43
2022/01/06 04:46:03;;;;;;;7.53;1.80;;;2.60;99.90;;;;;;5045860;28;20355;-43
2022/01/06 04:48:29;;;;;;;12.52;2.00;;;2.60;99.90;;;;;;5046508;28;20135;-42
2022/01/06 04:50:54;;;;;;;9.02;2.10;;;2.60;99.90;;;;;;5046673;28;20060;-43
2022/01/06 04:53:20;;;;;;;14.10;2.50;;;2.60;99.90;;;;;;5046789;28;20036;-42
2022/01/06 04:55:45;;;;;;;11.10;1.95;;;2.70;99.90;;;;;;5046296;28;20135;-44
2022/01/06 04:58:11;;;;;;;11.30;1.70;;;2.70;99.90;;;;;;5046935;28;20029;-44
2022/01/06 05:00:36;;;;;;;6.80;1.38;;;2.60;99.90;;;;;;5046052;28;20497;-43
2022/01/06 05:03:05;;;;;;;9.98;1.92;;;2.60;99.90;;;;;;5046972;28;20518;-42
2022/01/06 05:05:30;;;;;;;9.63;1.80;;;2.60;99.90;;;;;;5046452;28;20041;-42
2022/01/06 05:07:56;;;;;;;12.07;2.05;;;2.60;99.90;;;;;;5046227;28;20032;-44
2022/01/06 05:10:21;;;;;;;9.38;1.67;;;2.60;99.90;;;;;;5046236;28;20033;-44
2022/01/06 05:12:47;;;;;;;7.15;1.42;;;2.60;99.90;;;;;;5046521;28;20025;-43
2022/01/06 05:15:13;;;;;;;11.35;2.13;;;2.60;99.90;;;;;;5046462;28;20021;-44
2022/01/06 05:17:40;;;;;;;8.02;1.77;;;2.50;99.90;;;;;;5046480;28;20460;-43
2022/01/06 05:20:07;;;;;;;11.10;1.60;;;2.60;99.90;;;;;;5046558;28;20031;-44
2022/01/06 05:22:33;;;;;;;12.52;2.85;;;2.60;99.90;;;;;;5034827;28;20152;-44
2022/01/06 05:24:59;;;;;;;14.93;3.33;;;2.60;99.90;;;;;;5046355;28;20024;-44
2022/01/06 05:27:24;;;;;;;11.65;2.47;;;2.60;99.90;;;;;;5046685;28;20010;-43
2022/01/06 05:29:51;;;;;;;12.43;2.05;;;2.60;99.90;;;;;;5045957;28;20029;-42
2022/01/06 05:32:16;;;;;;;9.55;2.10;;;2.60;99.90;;;;;;5046520;28;20622;-42
2022/01/06 05:34:42;;;;;;;8.52;2.10;;;2.70;99.90;;;;;;5046537;28;20291;-43
2022/01/06 05:37:07;;;;;;;8.15;1.83;;;2.70;99.90;;;;;;5045421;28;20048;-43
2022/01/06 05:39:33;;;;;;;10.93;1.73;;;2.70;99.90;;;;;;5046655;28;20024;-42
2022/01/06 05:41:58;;;;;;;9.23;1.75;;;2.70;99.90;;;;;;5046436;28;20022;-42
2022/01/06 05:44:25;;;;;;;10.27;1.70;;;2.70;99.90;;;;;;5045877;28;20170;-43
2022/01/06 05:46:51;;;;;;;7.40;1.77;;;2.70;99.90;;;;;;5046292;28;20029;-43
2022/01/06 05:49:16;;;;;;;7.85;1.33;;;2.70;99.90;;;;;;5046115;28;20067;-43
2022/01/06 05:51:43;;;;;;;7.07;1.77;;;2.60;99.90;;;;;;5045700;28;20511;-44
2022/01/06 05:54:08;;;;;;;5.65;1.10;;;2.60;99.90;;;;;;5046427;28;20025;-42
2022/01/06 05:56:34;;;;;;;6.88;1.52;;;2.60;99.90;;;;;;5045393;28;20082;-44
2022/01/06 05:58:59;;;;;;;9.07;1.88;;;2.60;99.90;;;;;;5046991;28;20033;-42
2022/01/06 06:01:25;;;;;;;8.23;1.38;;;2.50;99.90;;;;;;5049626;28;20028;-42
2022/01/06 06:03:52;;;;;;;7.85;1.17;;;2.50;99.90;;;;;;5049153;28;20601;-43
2022/01/06 06:06:18;;;;;;;4.88;1.42;;;2.50;99.90;;;;;;5050278;28;20025;-42
2022/01/06 06:08:43;;;;;;;5.03;1.58;;;2.40;99.90;;;;;;5049619;28;20019;-45
2022/01/06 06:11:09;;;;;;;4.50;1.30;;;2.40;99.90;;;;;;5048936;28;20122;-43
2022/01/06 06:13:34;;;;;;;4.18;1.35;;;2.30;99.90;;;;;;5049631;28;20017;-43
2022/01/06 06:15:59;;;;;;;5.53;1.50;;;2.20;99.90;;;;;;5049531;28;20040;-42
2022/01/06 06:18:25;;;;;;;4.70;1.73;;;2.20;99.90;;;;;;5048878;28;20031;-43
2022/01/06 06:20:51;;;;;;;7.28;2.22;;;2.10;99.90;;;;;;5050054;28;20045;-42
2022/01/06 06:23:16;;;;;;;7.68;1.77;;;2.10;99.90;;;;;;5049216;28;20600;-42
2022/01/06 06:25:42;;;;;;;5.88;1.40;;;2.00;99.90;;;;;;5048922;28;20047;-43
2022/01/06 06:28:08;;;;;;;4.93;1.42;;;2.00;99.90;;;;;;5049413;28;20464;-44
2022/01/06 06:30:34;;;;;;;8.13;1.73;;;1.90;99.90;;;;;;5049423;28;20025;-44
2022/01/06 06:33:01;;;;;;;5.45;1.50;;;1.90;99.90;;;;;;5048614;28;20384;-44
2022/01/06 06:35:28;;;;;;;5.53;1.60;;;1.80;99.90;;;;;;5049370;28;20033;-42
2022/01/06 06:37:53;;;;;;;6.13;1.40;;;1.80;99.90;;;;;;5048968;28;20092;-43
2022/01/06 06:40:22;;;;;;;7.18;1.58;;;1.80;99.90;;;;;;5049123;28;20112;-43
2022/01/06 06:42:48;;;;;;;4.57;1.50;;;1.70;99.90;;;;;;5049065;28;20027;-41
2022/01/06 06:45:14;;;;;;;8.38;1.60;;;1.70;99.90;;;;;;5049561;28;20025;-43
2022/01/06 06:47:40;;;;;;;5.45;1.45;;;1.70;99.90;;;;;;5048382;28;20036;-43
2022/01/06 06:50:06;;;;;;;6.47;1.60;;;1.60;99.90;;;;;;5048530;28;20436;-43
2022/01/06 06:52:32;;;;;;;8.50;2.60;;;1.60;99.90;;;;;;5048441;28;20067;-43
2022/01/06 06:54:58;;;;;;;5.05;1.60;;;1.60;99.90;;;;;;5051530;28;20048;-43
2022/01/06 06:57:24;;;;;;;6.10;1.65;;;1.50;99.90;;;;;;5068799;28;20027;-43
2022/01/06 06:59:49;;;;;;;5.25;1.35;;;1.50;99.90;;;;;;5050829;28;20028;-43
2022/01/06 07:02:15;;;;;;;5.40;1.52;;;1.50;99.90;;;;;;5045944;28;20025;-44
2022/01/06 07:04:40;;;;;;;5.85;1.67;;;1.50;99.90;;;;;;5047540;28;20020;-43
2022/01/06 07:07:06;;;;;;;4.88;1.73;;;1.50;99.90;;;;;;5047392;28;20108;-44
2022/01/06 07:09:31;;;;;;;8.90;2.72;;;1.50;99.90;;;;;;5047736;28;20554;-42
2022/01/06 07:11:57;;;;;;;6.13;1.67;;;1.40;99.90;;;;;;5047644;28;20838;-42
2022/01/06 07:14:22;;;;;;;2.83;1.50;;;1.40;99.90;;;;;;5047539;28;20017;-43
2022/01/06 07:16:48;;;;;;;6.35;2.13;;;1.40;99.90;;;;;;5047587;28;20033;-43
2022/01/06 07:19:13;;;;;;;4.72;1.52;;;1.40;99.90;;;;;;5048284;28;20020;-44
2022/01/06 07:21:39;;;;;;;4.68;1.60;;;1.40;99.90;;;;;;5047185;28;20354;-42
2022/01/06 07:24:05;;;;;;;5.05;2.08;;;1.30;99.90;;;;;;5047516;28;20013;-42
2022/01/06 07:26:31;;;;;;;2.63;1.10;;;1.40;99.90;;;;;;5047287;28;20328;-43
2022/01/06 07:28:57;;;;;;;6.25;1.52;;;1.30;99.90;;;;;;5047524;28;20094;-43
2022/01/06 07:31:22;;;;;;;5.18;1.83;;;1.30;99.90;;;;;;5048441;28;20029;-43
2022/01/06 07:33:48;;;;;;;4.65;1.67;;;1.30;99.90;;;;;;5047063;28;20552;-42
2022/01/06 07:36:13;;;;;;;3.40;1.40;;;1.30;99.90;;;;;;5045349;28;20042;-43
2022/01/06 07:38:39;;;;;;;2.47;1.30;;;1.30;99.90;;;;;;5047536;28;20025;-43
2022/01/06 07:41:04;;;;;;;3.72;1.52;;;1.30;99.90;;;;;;5047091;28;20180;-43
2022/01/06 07:43:30;;;;;;;7.72;2.92;;;1.30;99.90;;;;;;5047158;28;20032;-43
2022/01/06 07:45:55;;;;;;;5.97;2.00;;;1.30;99.90;;;;;;5047976;28;20025;-43
2022/01/06 07:48:26;;;;;;;5.18;1.63;;;1.30;99.90;;;;;;5047994;28;20048;-42
2022/01/06 07:50:52;;;;;;;2.75;1.35;;;1.30;99.90;;;;;;5046119;28;20041;-43
2022/01/06 07:53:18;;;;;;;8.18;2.00;;;1.30;99.90;;;;;;5048306;28;20029;-43
2022/01/06 07:55:43;;;;;;;3.95;1.40;;;1.30;99.90;;;;;;5045977;28;20029;-44
2022/01/06 07:58:09;;;;;;;6.55;1.83;;;1.30;99.90;;;;;;5047677;28;20025;-42
2022/01/06 08:00:35;;;;;;;4.03;1.50;;;1.30;99.90;;;;;;5047740;28;20031;-44
2022/01/06 08:03:00;;;;;;;4.80;2.00;;;1.30;99.90;;;;;;5046850;28;20124;-44
2022/01/06 08:05:27;;;;;;;6.32;2.22;;;1.30;99.90;;;;;;5047392;28;20025;-45
2022/01/06 08:07:54;;;;;;;7.55;2.28;;;1.20;99.90;;;;;;5047154;28;20079;-44
2022/01/06 08:10:19;;;;;;;8.73;2.13;;;1.30;99.90;;;;;;5047515;28;20139;-44
2022/01/06 08:12:45;;;;;;;5.70;2.30;;;1.30;99.90;;;;;;5047655;28;20093;-42
2022/01/06 08:15:11;;;;;;;4.15;1.70;;;1.30;99.90;;;;;;5046813;28;20035;-44
2022/01/06 08:17:37;;;;;;;7.97;2.28;;;1.30;99.90;;;;;;5046899;28;20021;-43
2022/01/06 08:20:07;;;;;;;6.50;1.90;;;1.20;99.90;;;;;;5047367;28;20029;-43
2022/01/06 08:22:33;;;;;;;6.15;2.13;;;1.30;99.90;;;;;;5046335;28;20373;-44
2022/01/06 08:24:59;;;;;;;5.50;1.65;;;1.30;99.90;;;;;;5047115;28;20027;-43
2022/01/06 08:27:24;;;;;;;5.80;1.95;;;1.20;99.90;;;;;;5046896;28;20029;-43
2022/01/06 08:29:54;;;;;;;8.48;2.08;;;1.30;99.90;;;;;;5046799;28;20059;-44
2022/01/06 08:32:20;;;;;;;4.95;2.00;;;1.30;99.90;;;;;;5046875;28;20017;-46
2022/01/06 08:34:46;;;;;;;5.22;2.13;;;1.30;99.90;;;;;;5046850;28;20029;-43
2022/01/06 08:37:11;;;;;;;8.63;2.40;;;1.30;99.90;;;;;;5047264;28;20063;-44
2022/01/06 08:39:37;;;;;;;3.92;2.03;;;1.30;99.90;;;;;;5046363;28;20108;-43
2022/01/06 08:42:03;;;;;;;5.30;2.13;;;1.30;99.90;;;;;;5046836;28;20025;-42
2022/01/06 08:44:29;;;;;;;7.65;2.92;;;1.30;99.90;;;;;;5046349;28;20464;-43
2022/01/06 08:46:55;;;;;;;5.70;2.65;;;1.30;99.90;;;;;;5046438;28;20071;-44
2022/01/06 08:49:21;;;;;;;7.85;2.67;;;1.40;99.90;;;;;;5047314;28;20547;-42
2022/01/06 08:51:47;;;;;;;7.05;2.63;;;1.40;99.90;;;;;;5061600;28;20135;-43
2022/01/06 08:54:13;;;;;;;7.82;2.53;;;1.40;99.90;;;;;;5046474;28;20431;-44
2022/01/06 08:56:38;;;;;;;7.15;2.55;;;1.40;99.90;;;;;;5046863;28;20033;-42
2022/01/06 08:59:04;;;;;;;7.03;2.17;;;1.40;99.90;;;;;;5045964;28;20013;-42
2022/01/06 09:01:31;;;;;;;5.72;2.70;;;1.40;99.90;;;;;;5047383;28;20029;-41
2022/01/06 09:03:57;;;;;;;6.45;3.25;;;1.40;99.90;;;;;;5046386;28;20044;-43
2022/01/06 09:06:22;;;;;;;5.68;2.95;;;1.40;99.90;;;;;;5056991;28;20036;-43
2022/01/06 09:08:48;;;;;;;10.77;3.08;;;1.50;99.90;;;;;;5052377;28;20131;-44
2022/01/06 09:11:13;;;;;;;12.80;3.25;;;1.50;99.90;;;;;;5046611;28;20079;-44
2022/01/06 09:13:39;;;;;;;9.75;3.33;;;1.50;99.90;;;;;;5046229;28;20025;-43
2022/01/06 09:16:09;;;;;;;5.97;2.53;;;1.50;99.90;;;;;;5046324;28;20829;-43
2022/01/06 09:18:39;;;;;;;5.22;3.60;;;1.60;99.90;;;;;;5046857;28;20017;-43
2022/01/06 09:21:06;;;;;;;9.25;3.80;;;1.60;99.90;;;;;;5046253;28;20087;-42
2022/01/06 09:23:32;;;;;;;8.85;3.80;;;1.60;99.90;;;;;;5046278;28;20105;-43
2022/01/06 09:25:58;;;;;;;11.45;5.97;;;1.60;99.90;;;;;;5046734;28;20144;-44
2022/01/06 09:28:23;;;;;;;7.45;4.85;;;1.70;99.90;;;;;;5045193;28;20377;-43
2022/01/06 09:30:52;;;;;;;14.23;6.50;;;1.70;99.90;;;;;;5045935;28;20709;-43
2022/01/06 09:33:20;;;;;;;12.70;6.22;;;1.80;99.90;;;;;;5046758;28;20473;-43
2022/01/06 09:35:46;;;;;;;8.77;5.70;;;1.80;99.90;;;;;;5049311;28;20111;-43
2022/01/06 09:38:13;;;;;;;12.07;6.65;;;1.80;99.90;;;;;;5050593;28;20022;-45
2022/01/06 09:40:40;;;;;;;12.55;6.30;;;1.90;99.90;;;;;;5049874;28;20041;-43
2022/01/06 09:43:06;;;;;;;12.32;6.03;;;1.90;99.90;;;;;;5049933;28;20035;-45
2022/01/06 09:45:32;;;;;;;11.95;5.18;;;1.90;99.90;;;;;;5050334;28;20498;-43
2022/01/06 09:47:58;;;;;;;8.57;4.50;;;1.90;99.90;;;;;;5050454;28;20025;-44
2022/01/06 09:50:24;;;;;;;8.65;3.75;;;2.00;99.90;;;;;;5049371;28;20396;-43
2022/01/06 09:52:51;;;;;;;5.50;3.42;;;2.00;99.90;;;;;;5049430;28;20071;-43
2022/01/06 09:55:17;;;;;;;8.98;3.70;;;2.00;99.90;;;;;;5049743;28;20029;-43
2022/01/06 09:57:58;;;;;;;10.60;3.58;;;2.10;99.90;;;;;;5049805;28;20085;-44
2022/01/06 10:00:25;;;;;;;6.65;3.22;;;2.10;99.90;;;;;;5049433;28;20376;-43
2022/01/06 10:02:58;;;;;;;6.32;3.28;;;2.10;99.90;;;;;;5049843;28;20103;-43
2022/01/06 10:05:26;;;;;;;8.02;2.58;;;2.10;99.90;;;;;;5049149;28;20025;-42
2022/01/06 10:07:55;;;;;;;6.00;2.72;;;2.20;99.90;;;;;;5050001;28;20043;-42
2022/01/06 10:10:25;;;;;;;7.55;2.50;;;2.20;99.90;;;;;;5049140;28;20711;-43
2022/01/06 10:12:56;;;;;;;6.78;2.17;;;2.30;99.90;;;;;;5049718;28;20021;-43
2022/01/06 10:15:24;;;;;;;4.95;2.08;;;2.30;99.90;;;;;;5048873;28;20021;-42
2022/01/06 10:17:49;;;;;;;5.90;2.55;;;2.40;99.90;;;;;;5049278;28;20052;-43
2022/01/06 10:20:17;;;;;;;5.05;2.35;;;2.40;99.90;;;;;;5049859;28;20067;-43
2022/01/06 10:22:45;;;;;;;3.47;1.88;;;2.50;99.90;;;;;;5049522;28;20033;-44
2022/01/06 10:25:11;;;;;;;4.63;2.17;;;2.50;99.90;;;;;;5049897;28;20021;-43
2022/01/06 10:27:37;;;;;;;5.60;2.55;;;2.50;99.90;;;;;;5049014;28;20023;-42
2022/01/06 10:30:06;;;;;;;8.50;2.92;;;2.60;99.90;;;;;;5049176;28;20390;-43
2022/01/06 10:32:32;;;;;;;5.15;2.60;;;2.60;99.90;;;;;;5047837;28;20013;-43
2022/01/06 10:35:02;;;;;;;6.13;2.58;;;2.70;99.90;;;;;;5049477;28;20025;-42
2022/01/06 10:37:40;;;;;;;5.97;2.95;;;2.80;99.90;;;;;;5047760;28;20021;-43
2022/01/06 10:40:11;;;;;;;4.95;2.20;;;2.80;99.90;;;;;;5049340;28;20021;-43
2022/01/06 10:42:40;;;;;;;5.30;2.40;;;2.90;99.90;;;;;;5048138;28;20074;-41
2022/01/06 10:45:15;;;;;;;5.47;2.35;;;2.90;99.90;;;;;;5048061;28;20044;-43
2022/01/06 10:47:49;;;;;;;6.80;2.17;;;3.00;99.90;;;;;;5048447;28;20021;-44
2022/01/06 10:50:25;;;;;;;8.20;3.97;;;3.00;99.90;;;;;;5049151;28;20472;-42
2022/01/06 10:53:01;;;;;;;9.93;4.00;;;3.00;99.90;;;;;;5048451;28;20045;-43
2022/01/06 10:55:31;;;;;;;9.85;4.13;;;3.10;99.90;;;;;;5048159;28;20439;-42
2022/01/06 10:58:04;;;;;;;8.02;3.00;;;3.10;99.90;;;;;;5048099;28;20036;-42
2022/01/06 11:00:47;;;;;;;9.15;3.10;;;3.20;99.90;;;;;;5048508;28;20032;-43
2022/01/06 11:03:24;;;;;;;9.77;3.15;;;3.30;99.90;;;;;;5048342;28;20025;-43
2022/01/06 11:05:55;;;;;;;7.68;2.97;;;3.40;99.90;;;;;;5048939;28;20036;-44
2022/01/06 11:08:25;;;;;;;7.88;2.88;;;3.40;99.90;;;;;;5048282;28;20101;-43
2022/01/06 11:13:47;;;;;;;6.80;2.63;;;3.60;99.90;;;;;;5047720;28;20029;-44
2022/01/06 11:16:17;;;;;;;8.90;2.63;;;3.70;99.90;;;;;;5049074;28;20029;-42
2022/01/06 11:18:52;;;;;;;7.20;3.17;;;3.70;99.90;;;;;;5048719;28;20037;-43
2022/01/06 11:21:23;;;;;;;8.05;2.67;;;3.70;99.90;;;;;;5048308;28;20096;-42
2022/01/06 11:24:00;;;;;;;13.10;3.30;;;3.80;99.90;;;;;;5036002;28;20033;-43
2022/01/06 11:26:26;;;;;;;7.95;3.15;;;3.90;99.90;;;;;;5048998;28;20025;-43
2022/01/06 11:28:59;;;;;;;8.80;2.40;;;3.90;99.90;;;;;;5047651;28;20048;-43
2022/01/06 11:31:27;;;;;;;11.30;2.95;;;4.00;99.90;;;;;;5048246;28;20098;-45
2022/01/06 11:33:56;;;;;;;13.90;3.80;;;4.00;99.90;;;;;;5046356;28;20512;-43
2022/01/06 11:36:32;;;;;;;12.25;3.78;;;4.10;99.90;;;;;;5048045;28;20061;-41
2022/01/06 11:39:00;;;;;;;7.13;3.13;;;4.10;99.90;;;;;;5046146;28;20021;-44
2022/01/06 11:41:36;;;;;;;6.88;2.60;;;4.20;99.90;;;;;;5047416;28;20060;-44
2022/01/06 11:44:02;;;;;;;8.95;2.70;;;4.30;99.90;;;;;;5047461;28;20031;-43
2022/01/06 11:46:40;;;;;;;9.77;3.65;;;4.30;99.90;;;;;;5047983;28;20017;-44
2022/01/06 11:49:06;;;;;;;8.88;2.80;;;4.30;99.90;;;;;;5046979;28;20798;-41
2022/01/06 11:51:36;;;;;;;4.40;2.10;;;4.30;99.90;;;;;;5046277;28;20052;-43
2022/01/06 11:54:17;;;;;;;8.73;2.60;;;4.30;99.90;;;;;;5047668;28;20373;-44
2022/01/06 11:56:52;;;;;;;8.20;2.92;;;4.40;99.90;;;;;;5047225;28;20036;-46
2022/01/06 11:59:31;;;;;;;5.78;2.63;;;4.40;99.90;;;;;;5047758;28;20101;-43
2022/01/06 12:01:57;;;;;;;6.55;2.92;;;4.50;99.90;;;;;;5047061;28;20492;-44
2022/01/06 12:04:24;;;;;;;8.90;2.42;;;4.60;99.90;;;;;;5047881;28;20009;-43
2022/01/06 12:06:50;;;;;;;6.50;2.40;;;4.60;99.90;;;;;;5047340;28;20508;-43
2022/01/06 12:09:19;;;;;;;10.10;2.53;;;4.70;99.90;;;;;;5047455;28;20029;-43
2022/01/06 12:11:45;;;;;;;8.70;2.72;;;4.70;99.90;;;;;;5047645;28;20106;-43
2022/01/06 12:14:11;;;;;;;10.68;2.80;;;4.80;99.90;;;;;;5046976;28;20068;-43
2022/01/06 12:16:38;;;;;;;6.10;2.40;;;4.80;99.90;;;;;;5047308;28;20680;-44
2022/01/06 12:19:23;;;;;;;7.10;2.42;;;4.80;99.90;;;;;;5047015;28;20021;-43
2022/01/06 12:21:48;;;;;;;12.48;2.70;;;4.90;99.90;;;;;;5038827;28;20033;-42
2022/01/06 12:24:15;;;;;;;14.55;3.08;;;4.90;99.90;;;;;;5047437;28;20028;-43
2022/01/06 12:26:41;;;;;;;12.73;2.78;;;5.00;99.90;;;;;;5036168;28;20017;-43
2022/01/06 12:29:15;;;;;;;6.25;2.08;;;5.10;99.90;;;;;;5046718;28;20033;-43
2022/01/06 12:31:42;;;;;;;5.63;2.17;;;5.10;99.90;;;;;;5046998;28;20029;-43
2022/01/06 12:34:10;;;;;;;8.50;2.80;;;5.10;99.90;;;;;;5046917;28;20021;-42
2022/01/06 12:36:40;;;;;;;8.15;2.83;;;5.20;99.90;;;;;;5043867;28;20029;-43
2022/01/06 12:39:17;;;;;;;8.13;2.38;;;5.30;99.90;;;;;;5046204;28;20471;-43
2022/01/06 12:41:45;;;;;;;10.55;2.92;;;5.30;99.90;;;;;;5046969;28;20032;-43
2022/01/06 12:44:17;;;;;;;7.60;2.58;;;5.40;99.90;;;;;;5046960;28;20021;-43
2022/01/06 12:46:43;;;;;;;9.25;3.28;;;5.30;99.90;;;;;;5046336;28;20032;-42
2022/01/06 12:49:09;;;;;;;10.00;3.03;;;5.40;99.90;;;;;;5047185;28;20021;-43
2022/01/06 12:51:41;;;;;;;9.40;2.90;;;5.40;99.90;;;;;;5045867;28;20393;-44
2022/01/06 12:54:11;;;;;;;11.80;3.58;;;5.40;99.90;;;;;;5047400;28;20021;-42
2022/01/06 12:56:38;;;;;;;7.55;2.92;;;5.50;99.90;;;;;;5046556;28;20530;-43
2022/01/06 12:59:12;;;;;;;7.22;2.30;;;5.50;99.90;;;;;;5026559;28;20052;-43
2022/01/06 13:01:39;;;;;;;6.43;2.20;;;5.50;99.90;;;;;;5042064;28;20112;-43
2022/01/06 13:04:06;;;;;;;9.70;2.90;;;5.60;99.90;;;;;;5046404;28;20021;-42